Time;durP1;ratioP1;P1;durP2;ratioP2;P2;SDS_P1;SDS_P2;PMS_P1;PMS_P2;Temp;Humidity;BMP_temperature;BMP_pressure;BME280_temperature;BME280_humidity;BME280_pressure;Samples;Min_cycle;Max_cycle;Signal;HPM_P1;HPM_P2
2021/12/16 00:03:31;;;;;;;58.30;21.60;;;;;;;9.29;96.14;103188.31;5013513;28;20053;-75
2021/12/16 00:09:41;;;;;;;55.78;20.15;;;;;;;9.27;96.52;103182.28;4983925;28;20104;-73
2021/12/16 00:34:06;;;;;;;47.33;20.50;;;;;;;9.18;97.37;103189.59;5008386;28;20054;-74
2021/12/16 00:36:53;;;;;;;51.78;21.13;;;;;;;9.14;96.61;103188.00;5016413;28;20570;-74
2021/12/16 00:39:41;;;;;;;57.85;21.92;;;;;;;9.13;97.70;103191.53;5012755;28;20063;-74
2021/12/16 00:42:39;;;;;;;55.63;22.48;;;;;;;9.17;97.88;103196.63;5018335;28;20064;-75
2021/12/16 00:45:40;;;;;;;46.35;20.25;;;;;;;9.15;97.79;103184.47;5014840;28;20065;-73
2021/12/16 00:48:58;;;;;;;61.75;22.88;;;;;;;9.14;97.53;103182.75;5016882;28;20811;-74
2021/12/16 00:54:41;;;;;;;53.38;21.20;;;;;;;9.09;96.81;103195.16;5011124;28;20060;-74
2021/12/16 00:57:29;;;;;;;53.75;21.00;;;;;;;9.14;97.41;103201.13;5018229;28;20114;-75
2021/12/16 01:00:16;;;;;;;49.15;19.60;;;;;;;9.04;97.44;103197.94;5015795;28;20053;-73
2021/12/16 01:03:17;;;;;;;60.08;21.38;;;;;;;9.05;97.68;103201.44;5016469;28;20471;-73
2021/12/16 01:09:24;;;;;;;44.20;20.27;;;;;;;8.98;97.50;103203.38;5020299;28;20052;-74
2021/12/16 01:34:06;;;;;;;54.33;23.33;;;;;;;8.89;97.98;103213.34;5041670;28;20096;-74
2021/12/16 01:37:27;;;;;;;59.17;21.85;;;;;;;8.89;98.25;103219.41;5021544;28;20052;-74
2021/12/16 01:40:30;;;;;;;48.78;19.52;;;;;;;8.86;98.69;103221.28;5016359;28;20034;-74
2021/12/16 01:47:12;;;;;;;64.05;20.40;;;;;;;8.91;98.89;103219.34;4973991;28;20494;-74
2021/12/16 01:50:03;;;;;;;70.18;21.02;;;;;;;8.88;98.17;103222.09;5012463;28;20132;-73
2021/12/16 01:56:01;;;;;;;51.20;20.55;;;;;;;8.81;98.77;103231.91;5021630;28;20076;-73
2021/12/16 01:58:49;;;;;;;50.75;18.98;;;;;;;8.78;98.75;103232.00;5013911;28;20048;-74
2021/12/16 02:01:39;;;;;;;44.30;19.33;;;;;;;8.80;98.01;103234.59;5018719;28;20114;-73
2021/12/16 02:04:38;;;;;;;54.38;21.13;;;;;;;8.86;98.49;103226.53;5015105;28;20056;-73
2021/12/16 02:07:45;;;;;;;47.42;19.60;;;;;;;8.86;98.30;103230.00;5015392;28;20096;-73
2021/12/16 02:10:38;;;;;;;49.22;22.42;;;;;;;8.84;98.80;103226.59;5011502;28;20515;-74
2021/12/16 02:27:18;;;;;;;;;;;;;;;8.76;98.22;103232.97;5016911;28;20485;-74
2021/12/16 02:29:29;;;;;;;51.25;21.05;;;;;;;8.42;99.10;103237.56;5016546;28;20056;-74
2021/12/16 02:32:34;;;;;;;46.50;19.27;;;;;;;8.39;98.81;103242.03;5020537;28;20050;-73
2021/12/16 02:35:31;;;;;;;56.78;19.60;;;;;;;8.38;98.89;103246.44;5026014;28;20057;-73
2021/12/16 02:38:19;;;;;;;51.53;20.85;;;;;;;8.43;99.04;103248.91;5027344;28;20058;-73
2021/12/16 02:41:06;;;;;;;41.83;17.98;;;;;;;8.40;99.04;103246.38;5015441;28;20634;-73
2021/12/16 02:50:06;;;;;;;42.92;19.35;;;;;;;8.38;99.38;103249.03;5021750;28;20048;-75
2021/12/16 02:52:54;;;;;;;62.03;20.55;;;;;;;8.34;99.30;103250.03;5018814;28;20688;-74
2021/12/16 02:55:41;;;;;;;66.50;20.48;;;;;;;8.33;99.11;103243.06;5018746;28;20484;-73
2021/12/16 02:58:28;;;;;;;45.95;19.88;;;;;;;8.37;98.85;103249.09;5009276;28;20102;-75
2021/12/16 03:01:29;;;;;;;50.25;22.40;;;;;;;8.35;100.00;103246.50;5014587;28;20462;-74
2021/12/16 03:04:18;;;;;;;58.35;21.05;;;;;;;8.36;99.29;103248.22;5016893;28;20057;-75
2021/12/16 03:07:06;;;;;;;43.25;18.33;;;;;;;8.40;100.00;103249.88;5013065;28;20519;-74
2021/12/16 03:10:21;;;;;;;46.53;18.10;;;;;;;8.40;99.50;103243.75;4994624;28;20046;-74
2021/12/16 03:13:12;;;;;;;46.65;18.60;;;;;;;8.40;99.30;103244.63;5012727;28;20049;-73
2021/12/16 03:16:10;;;;;;;46.92;18.63;;;;;;;8.43;100.00;103239.28;4997629;28;20940;-74
2021/12/16 03:19:10;;;;;;;46.67;18.42;;;;;;;8.43;99.37;103252.38;5009972;28;20087;-75
2021/12/16 03:22:00;;;;;;;45.92;19.15;;;;;;;8.40;99.96;103255.09;5014801;28;20049;-75
2021/12/16 03:25:09;;;;;;;49.28;20.58;;;;;;;8.37;99.80;103251.72;5013446;28;20045;-73
2021/12/16 03:37:19;;;;;;;51.50;19.73;;;;;;;8.39;100.00;103248.16;4960410;28;20185;-74
2021/12/16 03:40:10;;;;;;;50.88;18.20;;;;;;;8.34;100.00;103260.50;5011690;28;20060;-74
2021/12/16 03:43:03;;;;;;;45.90;19.50;;;;;;;8.34;100.00;103260.50;5016382;28;20095;-74
2021/12/16 03:49:08;;;;;;;47.58;17.90;;;;;;;8.37;99.42;103260.41;5022264;28;20045;-74
2021/12/16 03:51:59;;;;;;;45.17;19.38;;;;;;;8.44;100.00;103256.72;5018818;28;20045;-73
2021/12/16 03:54:50;;;;;;;47.08;19.13;;;;;;;8.45;100.00;103252.34;5027364;28;20063;-74
2021/12/16 03:57:38;;;;;;;55.75;21.63;;;;;;;8.40;99.43;103268.19;5018910;28;20092;-73
2021/12/16 04:00:31;;;;;;;38.80;17.70;;;;;;;8.34;99.89;103270.13;5020242;28;20045;-73
2021/12/16 04:03:18;;;;;;;47.20;18.15;;;;;;;8.29;99.23;103272.88;5021244;28;20050;-74
2021/12/16 04:06:06;;;;;;;44.70;18.65;;;;;;;8.20;99.07;103267.91;5033963;28;20510;-75
2021/12/16 04:08:54;;;;;;;42.88;18.25;;;;;;;8.17;98.98;103278.47;5055785;28;20024;-73
2021/12/16 04:11:44;;;;;;;46.67;18.95;;;;;;;8.14;99.16;103278.56;5055812;28;20833;-74
2021/12/16 04:14:32;;;;;;;44.58;19.63;;;;;;;8.07;99.66;103279.63;5032502;28;20750;-73
2021/12/16 04:17:23;;;;;;;54.78;19.70;;;;;;;7.96;99.12;103279.06;5031142;28;20065;-73
2021/12/16 04:20:14;;;;;;;46.72;18.48;;;;;;;7.88;99.13;103277.56;5032016;28;21199;-73
2021/12/16 04:23:02;;;;;;;55.70;18.60;;;;;;;7.79;98.76;103274.34;5028288;28;20057;-73
2021/12/16 04:25:49;;;;;;;37.17;18.20;;;;;;;7.71;99.56;103281.53;5023087;28;20060;-74
2021/12/16 04:28:36;;;;;;;42.70;17.00;;;;;;;7.64;99.58;103280.00;5030218;28;20056;-73
2021/12/16 04:31:23;;;;;;;39.58;17.50;;;;;;;7.55;99.52;103281.09;5038697;28;20072;-75
2021/12/16 04:34:12;;;;;;;45.60;18.52;;;;;;;7.46;99.26;103285.72;5030690;28;20053;-74
2021/12/16 04:36:59;;;;;;;40.15;15.80;;;;;;;7.37;99.51;103296.41;5041659;28;20048;-73
2021/12/16 04:39:47;;;;;;;35.08;16.63;;;;;;;7.30;99.58;103284.38;5031503;28;20063;-74
2021/12/16 04:42:36;;;;;;;39.47;17.00;;;;;;;7.27;99.48;103280.09;5036083;28;20041;-73
2021/12/16 04:45:22;;;;;;;34.38;16.90;;;;;;;7.34;99.91;103283.44;5038957;28;20045;-74
2021/12/16 04:48:09;;;;;;;40.22;15.98;;;;;;;7.33;100.00;103281.72;5048387;28;20359;-75
2021/12/16 04:50:58;;;;;;;45.13;17.15;;;;;;;7.32;99.88;103273.00;5031329;28;20033;-73
2021/12/16 04:53:45;;;;;;;46.65;17.88;;;;;;;7.19;99.90;103268.97;5030651;28;20093;-74
2021/12/16 04:56:32;;;;;;;48.20;17.42;;;;;;;7.15;100.00;103269.09;5037581;28;20079;-74
2021/12/16 04:59:21;;;;;;;42.25;17.15;;;;;;;7.10;99.54;103265.72;5035985;28;20803;-72
2021/12/16 05:02:11;;;;;;;44.58;18.58;;;;;;;7.15;99.69;103272.56;5019322;28;20419;-73
2021/12/16 05:04:57;;;;;;;44.92;17.77;;;;;;;6.97;99.75;103274.78;5022911;28;20155;-74
2021/12/16 05:07:47;;;;;;;35.67;15.98;;;;;;;6.81;99.89;103275.19;5010484;28;20581;-75
2021/12/16 05:10:34;;;;;;;46.13;17.02;;;;;;;6.72;99.91;103281.47;5013060;28;20061;-74
2021/12/16 05:13:24;;;;;;;33.65;16.40;;;;;;;6.65;100.00;103287.75;5011185;28;20100;-73
2021/12/16 05:16:12;;;;;;;34.13;15.93;;;;;;;6.56;99.81;103293.16;5022040;28;20057;-74
2021/12/16 05:19:00;;;;;;;37.70;17.40;;;;;;;6.57;99.61;103279.22;5015689;28;20074;-74
2021/12/16 05:21:53;;;;;;;49.67;16.50;;;;;;;6.47;99.31;103288.16;5012408;28;20048;-75
2021/12/16 05:24:41;;;;;;;31.90;15.38;;;;;;;6.41;99.80;103287.41;5012154;28;20493;-73
2021/12/16 05:27:27;;;;;;;34.88;16.95;;;;;;;6.33;100.00;103285.88;5012594;28;20688;-75
2021/12/16 05:30:15;;;;;;;35.75;15.05;;;;;;;6.30;99.75;103294.63;5018016;28;20662;-73
2021/12/16 05:33:01;;;;;;;42.42;17.15;;;;;;;6.31;99.58;103293.75;5012700;28;20095;-74
2021/12/16 05:35:49;;;;;;;51.92;18.17;;;;;;;6.42;99.72;103300.44;5016339;28;20041;-72
2021/12/16 05:38:36;;;;;;;38.90;14.98;;;;;;;6.43;99.96;103303.91;5020965;28;20425;-73
2021/12/16 05:41:25;;;;;;;45.75;16.17;;;;;;;6.39;99.86;103310.09;5017469;28;20550;-73
2021/12/16 05:44:13;;;;;;;33.05;15.75;;;;;;;6.37;100.00;103317.09;5021758;28;20049;-73
2021/12/16 05:47:00;;;;;;;30.65;14.55;;;;;;;6.28;100.00;103316.44;5022764;28;20049;-74
2021/12/16 05:49:49;;;;;;;29.38;12.98;;;;;;;6.14;99.93;103321.06;5020932;28;20057;-73
2021/12/16 05:52:36;;;;;;;35.78;15.07;;;;;;;6.07;99.75;103316.88;5018225;28;20132;-72
2021/12/16 05:55:23;;;;;;;68.38;16.25;;;;;;;5.98;99.48;103325.75;5018607;28;20065;-72
2021/12/16 05:58:17;;;;;;;28.35;13.77;;;;;;;5.90;99.42;103329.38;5018443;28;20049;-74
2021/12/16 06:01:07;;;;;;;30.42;13.80;;;;;;;5.85;99.92;103337.28;5017429;28;20045;-73
2021/12/16 06:03:54;;;;;;;36.75;14.88;;;;;;;5.78;99.59;103338.28;5017835;28;20081;-73
2021/12/16 06:06:41;;;;;;;33.10;13.00;;;;;;;5.72;100.00;103340.97;5022329;28;20285;-72
2021/12/16 06:09:30;;;;;;;45.13;12.98;;;;;;;5.65;99.86;103338.50;5025915;28;20404;-72
2021/12/16 06:12:17;;;;;;;39.85;13.57;;;;;;;5.57;99.52;103349.09;5038063;28;20053;-73
2021/12/16 06:15:19;;;;;;;32.28;13.88;;;;;;;5.53;99.88;103354.38;5046087;28;20057;-70
2021/12/16 06:27:20;;;;;;;31.98;15.18;;;;;;;5.48;100.00;103360.53;5014727;28;20091;-70
2021/12/16 06:30:12;;;;;;;34.13;14.95;;;;;;;5.53;100.00;103359.59;5039526;28;20048;-73
2021/12/16 06:33:01;;;;;;;24.20;11.85;;;;;;;5.59;100.00;103355.09;5026684;28;20076;-72
2021/12/16 06:35:48;;;;;;;119.82;13.80;;;;;;;5.66;100.00;103361.94;5043240;28;20048;-74
2021/12/16 06:38:35;;;;;;;26.85;10.35;;;;;;;5.70;100.00;103370.59;5045267;28;20479;-72
2021/12/16 06:41:22;;;;;;;86.88;13.05;;;;;;;5.72;100.00;103366.19;5051582;28;20049;-72
2021/12/16 06:44:17;;;;;;;162.10;14.80;;;;;;;5.80;100.00;103369.53;5056116;28;20033;-73
2021/12/16 06:47:09;;;;;;;40.00;11.85;;;;;;;5.84;100.00;103373.84;5044259;28;20391;-72
2021/12/16 06:49:56;;;;;;;13.02;8.23;;;;;;;5.84;100.00;103377.28;5033119;28;20510;-72
2021/12/16 06:52:48;;;;;;;21.20;10.57;;;;;;;5.91;100.00;103378.06;5039516;28;20626;-73
2021/12/16 06:55:41;;;;;;;19.17;11.30;;;;;;;5.96;100.00;103366.66;5038641;28;20127;-74
2021/12/16 06:58:33;;;;;;;47.05;12.07;;;;;;;5.99;100.00;103379.63;5039605;28;20048;-75
2021/12/16 07:01:36;;;;;;;22.30;12.10;;;;;;;6.06;100.00;103378.63;5037365;28;20127;-73
2021/12/16 07:04:25;;;;;;;22.17;11.43;;;;;;;6.12;100.00;103382.84;5044294;28;20049;-72
2021/12/16 07:07:16;;;;;;;21.45;11.73;;;;;;;6.22;100.00;103382.66;5036838;28;20064;-72
2021/12/16 07:10:04;;;;;;;45.70;14.52;;;;;;;6.23;100.00;103378.31;5024912;28;20094;-74
2021/12/16 07:12:54;;;;;;;28.23;12.13;;;;;;;6.24;100.00;103383.47;5038512;28;20123;-72
2021/12/16 07:15:41;;;;;;;104.00;16.40;;;;;;;6.27;100.00;103390.41;5038994;28;20053;-73
2021/12/16 07:18:28;;;;;;;74.60;13.30;;;;;;;6.24;100.00;103388.69;5025109;28;20060;-73
2021/12/16 07:21:16;;;;;;;114.00;15.13;;;;;;;6.27;100.00;103400.84;5034246;28;20048;-71
2021/12/16 07:24:03;;;;;;;24.17;11.90;;;;;;;6.30;100.00;103408.59;5037121;28;20055;-73
2021/12/16 07:26:50;;;;;;;40.65;12.68;;;;;;;6.37;100.00;103411.94;5038955;28;20411;-73
2021/12/16 07:29:38;;;;;;;28.40;13.18;;;;;;;6.41;100.00;103416.22;5041584;28;20048;-72
2021/12/16 07:32:25;;;;;;;31.15;12.98;;;;;;;6.40;100.00;103429.31;5036055;28;20128;-73
2021/12/16 07:35:14;;;;;;;60.38;17.95;;;;;;;6.39;100.00;103438.03;5040240;28;20211;-73
2021/12/16 07:38:03;;;;;;;79.80;14.70;;;;;;;6.46;100.00;103427.41;5038922;28;20053;-73
2021/12/16 07:40:51;;;;;;;28.70;12.60;;;;;;;6.52;100.00;103436.88;5039192;28;20549;-73
2021/12/16 07:43:54;;;;;;;36.58;12.60;;;;;;;6.50;100.00;103446.50;5032408;28;20053;-73
2021/12/16 07:46:45;;;;;;;24.85;11.77;;;;;;;6.56;100.00;103449.00;5037751;28;20057;-73
2021/12/16 07:49:35;;;;;;;70.93;12.95;;;;;;;6.62;100.00;103448.88;5035872;28;20555;-71
2021/12/16 07:52:23;;;;;;;105.78;15.20;;;;;;;6.64;100.00;103461.00;5040034;28;20055;-72
2021/12/16 07:55:12;;;;;;;55.72;12.85;;;;;;;6.69;100.00;103450.47;5032343;28;20044;-74
2021/12/16 07:57:59;;;;;;;105.25;14.38;;;;;;;6.68;100.00;103464.41;5038960;28;20478;-74
2021/12/16 08:00:46;;;;;;;95.43;13.48;;;;;;;6.66;100.00;103467.06;5034183;28;20393;-72
2021/12/16 08:03:36;;;;;;;24.42;12.95;;;;;;;6.71;100.00;103465.19;5035300;28;20490;-74
2021/12/16 08:06:25;;;;;;;61.53;14.88;;;;;;;6.78;100.00;103460.72;5039473;28;20139;-73
2021/12/16 08:09:12;;;;;;;110.43;12.88;;;;;;;6.77;100.00;103478.13;5033782;28;20057;-72
2021/12/16 08:12:00;;;;;;;57.47;15.95;;;;;;;6.77;100.00;103480.75;5039703;28;20059;-75
2021/12/16 08:14:47;;;;;;;38.35;13.35;;;;;;;6.84;100.00;103484.97;5037253;28;20049;-72
2021/12/16 08:17:34;;;;;;;60.60;15.10;;;;;;;6.89;100.00;103496.19;5035959;28;20494;-72
2021/12/16 08:20:22;;;;;;;74.10;12.70;;;;;;;6.97;100.00;103482.97;5031032;28;20073;-72
2021/12/16 08:23:09;;;;;;;110.38;16.05;;;;;;;7.02;100.00;103497.63;5033289;28;20053;-70
2021/12/16 08:25:56;;;;;;;36.10;14.52;;;;;;;7.07;100.00;103503.66;5032432;28;20053;-71
2021/12/16 08:28:44;;;;;;;132.43;14.82;;;;;;;7.12;100.00;103500.94;5034999;28;20055;-73
2021/12/16 08:31:33;;;;;;;49.20;12.93;;;;;;;7.14;100.00;103496.56;5011719;28;20048;-75
2021/12/16 08:34:20;;;;;;;58.40;12.63;;;;;;;7.15;100.00;103504.34;5037386;28;20051;-72
2021/12/16 08:37:09;;;;;;;61.47;12.85;;;;;;;7.20;100.00;103512.94;5027560;28;20071;-73
2021/12/16 08:39:56;;;;;;;71.70;15.68;;;;;;;7.22;100.00;103501.56;5037650;28;20052;-70
2021/12/16 08:42:43;;;;;;;40.45;12.80;;;;;;;7.21;100.00;103506.81;5033604;28;20141;-72
2021/12/16 08:45:32;;;;;;;31.67;12.32;;;;;;;7.21;100.00;103518.16;5032525;28;20053;-74
2021/12/16 08:48:19;;;;;;;82.93;15.77;;;;;;;7.22;100.00;103526.84;5029409;28;20049;-73
2021/12/16 08:51:07;;;;;;;103.47;13.60;;;;;;;7.28;100.00;103524.97;5034001;28;20056;-71
2021/12/16 08:53:55;;;;;;;108.03;14.57;;;;;;;7.29;100.00;103523.19;5031105;28;20055;-72
2021/12/16 08:56:43;;;;;;;37.33;13.52;;;;;;;7.38;100.00;103526.50;5034030;28;20539;-75
2021/12/16 08:59:30;;;;;;;85.05;13.48;;;;;;;7.36;100.00;103530.91;5033997;28;20095;-73
2021/12/16 09:02:19;;;;;;;62.67;13.98;;;;;;;7.36;100.00;103519.56;5035112;28;20045;-72
2021/12/16 09:05:07;;;;;;;102.40;14.85;;;;;;;7.37;100.00;103532.63;5035060;28;20501;-73
2021/12/16 09:07:54;;;;;;;24.42;13.43;;;;;;;7.49;100.00;103531.47;5017831;28;20069;-70
2021/12/16 09:10:41;;;;;;;25.05;13.93;;;;;;;7.59;100.00;103523.38;5030389;28;20037;-74
2021/12/16 09:13:28;;;;;;;65.53;16.45;;;;;;;7.49;100.00;103526.25;5027464;28;20091;-75
2021/12/16 09:16:18;;;;;;;70.95;15.05;;;;;;;7.62;100.00;103540.75;5029336;28;20049;-74
2021/12/16 09:19:07;;;;;;;40.53;13.80;;;;;;;7.72;100.00;103539.66;5035428;28;20316;-73
2021/12/16 09:21:54;;;;;;;151.02;18.52;;;;;;;7.79;100.00;103549.97;5018956;28;20782;-73
2021/12/16 09:24:41;;;;;;;40.33;14.65;;;;;;;7.94;100.00;103553.06;5009472;28;20053;-73
2021/12/16 09:27:27;;;;;;;33.17;12.43;;;;;;;7.98;100.00;103546.88;5013651;28;20164;-74
2021/12/16 09:30:18;;;;;;;31.92;14.73;;;;;;;7.91;100.00;103546.19;5013970;28;20057;-72
2021/12/16 09:33:12;;;;;;;96.60;17.45;;;;;;;7.88;100.00;103556.72;5011149;28;20064;-72
2021/12/16 09:36:01;;;;;;;99.82;18.38;;;;;;;7.90;100.00;103553.16;5011636;28;20045;-75
2021/12/16 09:38:49;;;;;;;51.45;16.17;;;;;;;8.02;100.00;103545.88;5015227;28;20077;-73
2021/12/16 09:41:36;;;;;;;35.67;17.52;;;;;;;7.96;100.00;103551.28;5018652;28;20519;-73
2021/12/16 09:44:24;;;;;;;36.47;14.75;;;;;;;8.24;100.00;103549.75;5013267;28;20407;-74
2021/12/16 09:47:13;;;;;;;91.93;16.27;;;;;;;8.45;100.00;103546.56;5016816;28;20049;-73
2021/12/16 09:50:00;;;;;;;55.97;16.83;;;;;;;8.50;100.00;103549.91;5013454;28;20048;-74
2021/12/16 09:52:48;;;;;;;40.95;17.15;;;;;;;8.55;100.00;103549.78;5008745;28;20057;-72
2021/12/16 09:55:35;;;;;;;47.83;17.17;;;;;;;8.53;100.00;103543.75;5013258;28;20045;-72
2021/12/16 09:58:22;;;;;;;65.18;19.27;;;;;;;8.67;100.00;103546.88;5010202;28;20046;-72
2021/12/16 10:01:10;;;;;;;35.25;17.20;;;;;;;8.63;100.00;103540.84;5013749;28;20044;-73
2021/12/16 10:04:02;;;;;;;46.72;18.67;;;;;;;8.70;98.44;103537.16;5010753;28;20046;-75
2021/12/16 10:06:54;;;;;;;47.28;18.55;;;;;;;8.76;98.30;103536.97;5022647;28;20071;-74
2021/12/16 10:09:43;;;;;;;51.13;16.13;;;;;;;8.71;97.84;103538.00;5026633;28;20063;-74
2021/12/16 10:12:36;;;;;;;48.75;15.70;;;;;;;8.61;96.76;103521.69;5032236;28;20455;-73
2021/12/16 10:18:29;;;;;;;45.10;18.35;;;;;;;8.83;96.89;103541.16;5031922;28;20095;-76
2021/12/16 10:21:21;;;;;;;44.30;17.95;;;;;;;8.91;95.97;103539.16;5030097;28;20042;-75
2021/12/16 10:24:20;;;;;;;;;;;;;;;9.08;96.46;103545.66;5033021;28;20049;-74
2021/12/16 10:27:11;;;;;;;43.65;17.13;;;;;;;9.25;94.45;103537.31;5033846;28;19920;-75
2021/12/16 10:30:00;;;;;;;47.33;20.10;;;;;;;9.32;93.58;103538.84;5031950;28;20309;-74
2021/12/16 10:32:50;;;;;;;53.40;20.45;;;;;;;9.51;94.30;103538.25;5033254;28;20067;-74
2021/12/16 10:35:37;;;;;;;59.05;20.48;;;;;;;9.58;91.75;103540.63;5034833;28;20049;-73
2021/12/16 10:38:25;;;;;;;50.88;22.10;;;;;;;9.70;92.17;103529.75;5032528;28;20049;-72
2021/12/16 10:41:16;;;;;;;66.22;23.52;;;;;;;9.83;91.72;103544.19;5036166;28;20049;-73
2021/12/16 10:44:07;;;;;;;61.92;24.73;;;;;;;9.84;91.29;103545.94;5036068;28;20053;-74
2021/12/16 10:47:00;;;;;;;71.82;25.55;;;;;;;9.62;92.65;103555.38;5034953;28;20049;-73
2021/12/16 10:49:49;;;;;;;80.03;22.30;;;;;;;9.54;92.90;103555.66;5031915;28;20624;-72
2021/12/16 10:52:40;;;;;;;58.63;23.70;;;;;;;9.41;94.67;103565.66;5031206;28;20047;-71
2021/12/16 10:55:27;;;;;;;72.35;23.70;;;;;;;9.18;95.59;103572.47;5032671;28;20049;-73
2021/12/16 10:58:14;;;;;;;56.72;20.65;;;;;;;9.27;95.64;103572.22;5031750;28;20057;-73
2021/12/16 11:01:02;;;;;;;65.20;24.15;;;;;;;9.32;94.92;103570.31;5033651;28;20065;-72
2021/12/16 11:03:49;;;;;;;102.20;26.40;;;;;;;9.39;94.53;103564.84;5038642;28;20175;-72
2021/12/16 11:06:39;;;;;;;60.20;24.92;;;;;;;9.56;93.85;103570.47;5025521;28;20054;-73
2021/12/16 11:09:56;;;;;;;57.83;24.90;;;;;;;9.63;92.98;103565.00;5011630;28;20586;-73
2021/12/16 11:12:48;;;;;;;88.10;25.33;;;;;;;9.84;92.48;103576.59;5013637;28;20085;-71
2021/12/16 11:15:38;;;;;;;66.03;27.95;;;;;;;9.94;91.65;103567.50;5014084;28;20033;-72
2021/12/16 11:18:28;;;;;;;74.97;27.17;;;;;;;10.02;91.90;103570.75;5014938;28;20445;-71
2021/12/16 11:21:15;;;;;;;58.60;25.98;;;;;;;9.96;91.06;103578.81;5022593;28;20467;-71
2021/12/16 11:24:22;;;;;;;99.97;26.90;;;;;;;9.87;92.57;103566.84;5024189;28;20099;-73
2021/12/16 11:27:33;;;;;;;51.08;23.13;;;;;;;10.08;91.74;103576.69;5015204;28;20053;-72
2021/12/16 11:30:28;;;;;;;101.53;26.70;;;;;;;10.01;91.49;103572.53;5015813;28;20128;-75
2021/12/16 11:33:26;;;;;;;66.45;23.67;;;;;;;9.96;92.24;103563.94;5013555;28;20049;-72
2021/12/16 11:36:21;;;;;;;60.22;24.42;;;;;;;9.89;92.49;103566.78;5002383;28;20037;-74
2021/12/16 11:39:11;;;;;;;46.83;22.63;;;;;;;9.88;92.52;103565.94;4997918;28;20061;-73
2021/12/16 11:42:01;;;;;;;61.13;23.70;;;;;;;9.91;93.20;103560.56;5013194;28;20052;-73
2021/12/16 11:44:52;;;;;;;54.08;24.17;;;;;;;9.98;91.81;103564.75;5016094;28;20050;-73
2021/12/16 11:47:50;;;;;;;66.25;25.20;;;;;;;10.05;91.93;103544.41;5016889;28;20506;-75
2021/12/16 11:50:40;;;;;;;59.97;22.50;;;;;;;10.19;92.16;103539.56;5031241;28;20049;-73
2021/12/16 11:53:37;;;;;;;52.25;21.80;;;;;;;10.46;90.98;103548.22;5034414;28;20045;-73
2021/12/16 11:56:36;;;;;;;54.65;20.67;;;;;;;10.46;90.24;103542.97;5031736;28;20127;-75
2021/12/16 11:59:26;;;;;;;66.40;21.95;;;;;;;10.51;90.32;103534.94;5016839;28;20495;-75
2021/12/16 12:02:23;;;;;;;46.88;20.73;;;;;;;10.68;89.33;103532.56;5008035;28;20089;-73
2021/12/16 12:05:19;;;;;;;45.28;20.17;;;;;;;10.52;89.28;103536.66;5009491;28;20168;-73
2021/12/16 12:08:10;;;;;;;48.95;20.75;;;;;;;10.11;91.43;103537.19;5028090;28;20080;-74
2021/12/16 12:11:00;;;;;;;46.95;19.48;;;;;;;10.17;91.95;103534.34;5033221;28;20082;-73
2021/12/16 12:13:49;;;;;;;47.88;22.40;;;;;;;10.30;91.65;103533.03;5025900;28;20041;-72
2021/12/16 12:16:39;;;;;;;43.30;19.30;;;;;;;10.24;91.08;103537.66;5027381;28;20049;-72
2021/12/16 12:19:26;;;;;;;50.22;21.17;;;;;;;10.28;91.31;103537.50;5033108;28;20045;-73
2021/12/16 12:22:13;;;;;;;59.90;21.48;;;;;;;10.36;91.79;103538.09;5029230;28;20064;-75
2021/12/16 12:25:00;;;;;;;43.00;19.88;;;;;;;10.15;91.59;103541.41;5032612;28;20597;-75
2021/12/16 12:27:48;;;;;;;51.70;22.23;;;;;;;10.31;92.46;103542.63;5024392;28;20049;-74
2021/12/16 12:30:35;;;;;;;48.50;20.83;;;;;;;10.35;91.84;103544.25;5031950;28;20510;-74
2021/12/16 12:33:22;;;;;;;50.97;20.83;;;;;;;10.50;91.06;103543.72;5027379;28;20053;-71
2021/12/16 12:36:09;;;;;;;53.70;20.13;;;;;;;10.48;90.97;103543.78;5030917;28;20702;-73
2021/12/16 12:38:58;;;;;;;55.08;20.83;;;;;;;10.49;90.01;103536.75;5027552;28;20082;-74
2021/12/16 12:41:47;;;;;;;47.88;20.70;;;;;;;10.48;91.26;103540.28;5033042;28;20495;-72
2021/12/16 12:44:36;;;;;;;51.42;21.02;;;;;;;10.35;91.40;103536.38;5026057;28;20566;-74
2021/12/16 12:47:25;;;;;;;42.08;17.80;;;;;;;10.28;92.31;103542.75;5022510;28;20174;-74
2021/12/16 12:50:17;;;;;;;42.90;18.95;;;;;;;10.33;91.89;103526.84;5030735;28;20132;-72
2021/12/16 12:53:12;;;;;;;45.50;18.85;;;;;;;10.47;91.22;103534.19;5029240;28;20055;-74
2021/12/16 12:56:11;;;;;;;44.67;19.00;;;;;;;10.66;90.20;103540.53;5028591;28;20440;-74
2021/12/16 12:59:01;;;;;;;53.45;20.05;;;;;;;10.58;90.66;103546.94;5029210;28;20414;-74
2021/12/16 13:01:54;;;;;;;43.00;18.42;;;;;;;10.43;90.59;103547.47;5027054;28;20052;-73
2021/12/16 13:04:47;;;;;;;89.18;21.30;;;;;;;10.26;92.32;103546.34;5020464;28;20049;-75
2021/12/16 13:07:36;;;;;;;84.70;21.23;;;;;;;10.17;92.39;103550.13;5023522;28;20061;-74
2021/12/16 13:10:24;;;;;;;56.72;22.08;;;;;;;10.28;92.83;103540.13;4980949;28;20120;-72
2021/12/16 13:13:29;;;;;;;52.88;21.73;;;;;;;10.53;91.67;103548.88;4990854;28;20524;-73
2021/12/16 13:29:06;;;;;;;59.80;22.17;;;;;;;10.35;91.87;103539.00;4997089;28;20636;-74
2021/12/16 13:32:07;;;;;;;53.05;18.98;;;;;;;10.04;92.76;103550.56;4990937;28;20072;-73
2021/12/16 13:35:03;;;;;;;45.85;19.70;;;;;;;9.80;93.56;103544.31;4984057;28;20064;-73
2021/12/16 13:37:52;;;;;;;61.28;20.98;;;;;;;9.67;95.57;103544.75;5001898;28;20038;-74
2021/12/16 13:40:42;;;;;;;50.70;19.70;;;;;;;9.71;95.70;103548.97;4988378;28;20038;-73
2021/12/16 13:43:30;;;;;;;37.50;18.13;;;;;;;9.61;95.79;103548.41;4979441;28;20317;-74
2021/12/16 14:00:59;;;;;;;60.58;23.25;;;;;;;9.44;96.04;103554.22;4996330;28;20068;-72
2021/12/16 14:03:44;;;;;;;56.35;20.63;;;;;;;9.23;97.13;103557.50;4998369;28;20054;-72
2021/12/16 14:06:39;;;;;;;50.67;22.10;;;;;;;9.22;96.99;103568.88;4998340;28;20045;-70
2021/12/16 14:09:32;;;;;;;57.00;22.17;;;;;;;9.19;97.99;103563.72;4998500;28;20050;-75
2021/12/16 14:15:56;;;;;;;51.67;21.05;;;;;;;9.04;98.83;103572.88;4999094;28;20053;-70
2021/12/16 14:25:32;;;;;;;49.83;20.67;;;;;;;9.05;98.50;103565.88;4999524;28;20088;-72
2021/12/16 14:32:02;;;;;;;51.03;19.20;;;;;;;8.99;98.86;103571.28;5002878;28;20275;-74
2021/12/16 14:35:00;;;;;;;48.35;19.38;;;;;;;9.00;99.29;103580.84;4993267;28;20841;-72
2021/12/16 14:38:05;;;;;;;56.65;22.13;;;;;;;8.94;99.13;103583.66;4994579;28;20049;-74
2021/12/16 14:41:06;;;;;;;48.92;21.33;;;;;;;8.99;99.19;103577.38;4995146;28;20125;-72
2021/12/16 14:44:19;;;;;;;47.65;19.80;;;;;;;9.06;98.41;103583.34;4993331;28;20114;-72
2021/12/16 14:47:42;;;;;;;50.78;20.42;;;;;;;9.05;98.44;103586.84;4995357;28;20046;-76
2021/12/16 14:50:32;;;;;;;44.65;19.40;;;;;;;9.04;98.87;103583.34;4996177;28;20128;-72
2021/12/16 14:53:31;;;;;;;48.88;21.17;;;;;;;9.03;98.24;103583.41;4995930;28;20105;-73
2021/12/16 14:56:23;;;;;;;43.20;19.10;;;;;;;8.97;97.90;103580.97;4995998;28;20103;-73
2021/12/16 14:59:14;;;;;;;46.10;20.52;;;;;;;8.97;98.44;103578.34;4997371;28;20054;-73
2021/12/16 15:02:01;;;;;;;50.58;20.90;;;;;;;8.97;99.11;103588.84;4995092;28;20053;-72
2021/12/16 15:04:48;;;;;;;54.10;21.17;;;;;;;8.93;99.09;103587.19;4996275;28;20053;-72
2021/12/16 15:07:35;;;;;;;46.83;19.35;;;;;;;8.97;99.20;103586.22;4995029;28;20049;-74
2021/12/16 15:10:24;;;;;;;58.58;20.80;;;;;;;9.00;98.30;103584.38;4999886;28;20052;-76
2021/12/16 15:13:17;;;;;;;40.50;19.25;;;;;;;9.08;98.62;103586.75;4981762;28;20045;-72
2021/12/16 15:16:30;;;;;;;54.42;19.60;;;;;;;9.09;98.87;103581.47;4997713;28;20129;-75
2021/12/16 15:37:07;;;;;;;49.50;20.63;;;;;;;9.25;98.37;103579.25;4994651;28;20072;-72
2021/12/16 15:39:49;;;;;;;50.80;20.00;;;;;;;9.26;97.15;103586.22;5001531;28;20069;-72
2021/12/16 15:45:08;;;;;;;48.03;19.55;;;;;;;9.22;97.70;103587.25;4991906;28;20050;-72
2021/12/16 15:47:38;;;;;;;55.88;20.77;;;;;;;9.19;98.33;103590.78;5002416;28;20042;-73
2021/12/16 15:50:06;;;;;;;48.10;18.10;;;;;;;9.23;98.03;103596.84;4998167;28;20041;-75